createdAt,value
2017-11-29T00:00:40.855Z,5.60
2017-11-29T00:03:11.251Z,5.50
2017-11-29T00:05:38.945Z,6.50
2017-11-29T00:08:08.459Z,6.20
2017-11-29T00:10:36.154Z,7.50
2017-11-29T00:13:04.662Z,8.60
2017-11-29T00:15:32.334Z,7.00
2017-11-29T00:18:00.947Z,8.60
2017-11-29T00:20:28.576Z,6.70
2017-11-29T00:22:58.024Z,8.00
2017-11-29T00:25:25.913Z,6.87
2017-11-29T00:27:55.300Z,7.57
2017-11-29T00:30:26.698Z,6.93
2017-11-29T00:32:54.422Z,8.00
2017-11-29T00:35:22.863Z,7.20
2017-11-29T00:37:50.528Z,8.63
2017-11-29T00:40:20.020Z,8.77
2017-11-29T00:42:48.510Z,8.13
2017-11-29T00:45:16.214Z,7.93
2017-11-29T00:47:45.540Z,8.30
2017-11-29T00:50:13.484Z,9.20
2017-11-29T00:52:42.807Z,7.90
2017-11-29T00:55:10.540Z,7.40
2017-11-29T00:57:38.412Z,8.60
2017-11-29T01:00:06.446Z,12.13
2017-11-29T01:02:34.096Z,9.87
2017-11-29T01:05:01.846Z,8.03
2017-11-29T01:07:31.344Z,8.37
2017-11-29T01:09:59.012Z,7.80
2017-11-29T01:12:26.852Z,8.70
2017-11-29T01:14:54.602Z,8.40
2017-11-29T01:17:24.033Z,6.80
2017-11-29T01:19:53.342Z,6.93
2017-11-29T01:22:21.048Z,6.93
2017-11-29T01:24:48.678Z,7.50
2017-11-29T01:27:16.422Z,7.70
2017-11-29T01:29:44.807Z,7.30
2017-11-29T01:32:13.271Z,8.60
2017-11-29T01:34:40.941Z,7.90
2017-11-29T01:37:10.412Z,7.53
2017-11-29T01:39:40.775Z,7.40
2017-11-29T01:42:08.597Z,6.37
2017-11-29T01:44:36.325Z,9.40
2017-11-29T01:47:03.987Z,7.73
2017-11-29T01:49:33.410Z,7.17
2017-11-29T01:52:02.722Z,7.57
2017-11-29T01:54:30.430Z,7.20
2017-11-29T01:57:00.813Z,7.23
2017-11-29T01:59:28.569Z,6.40
2017-11-29T02:01:56.398Z,6.57
2017-11-29T02:04:24.054Z,6.30
2017-11-29T02:06:53.609Z,7.30
2017-11-29T02:09:21.426Z,6.20
2017-11-29T02:11:50.859Z,6.03
2017-11-29T02:14:18.598Z,7.03
2017-11-29T02:16:47.857Z,6.07
2017-11-29T02:19:16.009Z,7.27
2017-11-29T02:21:45.259Z,6.30
2017-11-29T02:24:13.710Z,7.23
2017-11-29T02:26:42.698Z,6.53
2017-11-29T02:29:12.154Z,5.73
2017-11-29T02:31:39.853Z,5.90
2017-11-29T02:34:07.461Z,5.17
2017-11-29T02:36:35.937Z,5.67
2017-11-29T02:39:03.741Z,7.63
2017-11-29T02:41:45.039Z,6.30
2017-11-29T02:44:13.461Z,5.80
2017-11-29T02:46:41.129Z,7.20
2017-11-29T02:49:08.802Z,5.30
2017-11-29T02:51:36.983Z,5.70
2017-11-29T02:54:04.630Z,5.27
2017-11-29T02:56:34.095Z,5.77
2017-11-29T02:59:02.517Z,6.03
2017-11-29T03:01:31.807Z,6.00
2017-11-29T03:04:01.286Z,6.10
2017-11-29T03:06:29.721Z,6.10
2017-11-29T03:08:59.169Z,7.07
2017-11-29T03:11:26.963Z,7.70
2017-11-29T03:13:55.608Z,7.57
2017-11-29T03:16:24.163Z,6.17
2017-11-29T03:18:51.908Z,6.20
2017-11-29T03:21:20.011Z,8.30
2017-11-29T03:23:49.379Z,6.00
2017-11-29T03:26:21.255Z,6.17
2017-11-29T03:28:48.981Z,7.20
2017-11-29T03:31:16.650Z,10.10
2017-11-29T03:33:46.129Z,7.10
2017-11-29T03:36:13.813Z,6.70
2017-11-29T03:38:41.537Z,8.00
2017-11-29T03:41:09.219Z,7.03
2017-11-29T03:43:39.048Z,6.73
2017-11-29T03:46:07.435Z,5.83
2017-11-29T03:48:35.174Z,6.10
2017-11-29T03:51:02.934Z,6.50
2017-11-29T03:53:31.630Z,5.63
2017-11-29T03:56:01.079Z,6.63
2017-11-29T03:58:30.037Z,5.63
2017-11-29T04:01:00.357Z,6.07
2017-11-29T04:03:28.047Z,5.80
2017-11-29T04:05:57.341Z,5.67
2017-11-29T04:08:25.030Z,5.57
2017-11-29T04:10:52.687Z,11.10
2017-11-29T04:13:20.472Z,5.70
2017-11-29T04:15:51.491Z,6.57
2017-11-29T04:18:19.948Z,5.03
2017-11-29T04:20:47.700Z,6.17
2017-11-29T04:23:18.001Z,5.33
2017-11-29T04:25:45.663Z,6.13
2017-11-29T04:28:15.971Z,5.73
2017-11-29T04:30:47.971Z,5.40
2017-11-29T04:33:16.491Z,5.33
2017-11-29T04:35:45.013Z,5.63
2017-11-29T04:38:12.701Z,5.37
2017-11-29T04:40:40.426Z,6.50
2017-11-29T04:43:08.835Z,5.10
2017-11-29T04:45:36.519Z,5.67
2017-11-29T04:48:06.027Z,5.53
2017-11-29T04:50:35.380Z,6.20
2017-11-29T04:53:04.852Z,6.37
2017-11-29T04:55:32.605Z,6.77
2017-11-29T04:58:01.117Z,6.40
2017-11-29T05:00:29.191Z,7.50
2017-11-29T05:02:58.675Z,6.40
2017-11-29T05:05:29.066Z,7.00
2017-11-29T05:07:58.461Z,6.47
2017-11-29T05:10:28.009Z,5.60
2017-11-29T05:12:57.069Z,6.77
2017-11-29T05:15:31.721Z,6.30
2017-11-29T05:18:01.611Z,7.60
2017-11-29T05:20:30.149Z,8.73
2017-11-29T05:22:59.558Z,10.47
2017-11-29T05:25:30.217Z,8.43
2017-11-29T05:27:57.956Z,7.90
2017-11-29T05:30:28.351Z,13.20
2017-11-29T05:32:56.069Z,8.03
2017-11-29T05:35:24.469Z,7.10
2017-11-29T05:37:52.113Z,6.93
2017-11-29T05:40:19.725Z,6.77
2017-11-29T05:42:49.154Z,7.47
2017-11-29T05:45:17.978Z,6.90
2017-11-29T05:47:45.635Z,7.73
2017-11-29T05:50:15.067Z,7.67
2017-11-29T05:52:46.022Z,7.87
2017-11-29T05:55:13.695Z,7.90
2017-11-29T05:57:43.080Z,9.27
2017-11-29T06:00:13.414Z,7.83
2017-11-29T06:02:42.886Z,10.50
2017-11-29T06:05:10.649Z,10.13
2017-11-29T06:07:40.041Z,8.70
2017-11-29T06:10:11.577Z,7.50
2017-11-29T06:12:40.932Z,7.03
2017-11-29T06:15:08.677Z,7.67
2017-11-29T06:17:36.302Z,7.70
2017-11-29T06:20:05.960Z,8.00
2017-11-29T06:22:36.625Z,7.67
2017-11-29T06:25:05.156Z,7.33
2017-11-29T06:27:34.708Z,7.77
2017-11-29T06:30:03.488Z,9.10
2017-11-29T06:32:32.774Z,7.80
2017-11-29T06:35:00.600Z,7.27
2017-11-29T06:37:28.269Z,7.40
2017-11-29T06:39:56.718Z,9.00
2017-11-29T06:42:24.688Z,8.20
2017-11-29T06:44:52.476Z,10.10
2017-11-29T06:47:22.804Z,8.80
2017-11-29T06:49:51.205Z,8.73
2017-11-29T06:52:20.598Z,7.77
2017-11-29T06:54:49.156Z,8.10
2017-11-29T06:57:17.115Z,9.63
2017-11-29T06:59:47.076Z,8.33
2017-11-29T07:02:15.521Z,8.83
2017-11-29T07:04:43.243Z,8.57
2017-11-29T07:07:11.656Z,9.47
2017-11-29T07:09:40.054Z,11.83
2017-11-29T07:12:09.414Z,12.40
2017-11-29T07:14:38.851Z,10.87
2017-11-29T07:17:06.741Z,10.53
2017-11-29T07:19:35.259Z,11.53
2017-11-29T07:22:03.025Z,10.40
2017-11-29T07:24:30.839Z,11.80
2017-11-29T07:26:59.224Z,10.00
2017-11-29T07:29:28.736Z,9.30
2017-11-29T07:31:59.124Z,10.20
2017-11-29T07:34:26.821Z,11.13
2017-11-29T07:36:56.436Z,10.40
2017-11-29T07:39:25.816Z,9.73
2017-11-29T07:41:54.346Z,9.40
2017-11-29T07:44:22.003Z,8.23
2017-11-29T07:46:49.706Z,8.03
2017-11-29T07:49:19.114Z,8.93
2017-11-29T07:51:48.366Z,10.83
2017-11-29T07:54:18.835Z,10.10
2017-11-29T07:56:48.454Z,10.10
2017-11-29T07:59:16.176Z,10.63
2017-11-29T08:01:44.660Z,11.50
2017-11-29T08:04:15.033Z,13.87
2017-11-29T08:06:42.713Z,11.47
2017-11-29T08:09:13.019Z,9.30
2017-11-29T08:11:42.567Z,8.70
2017-11-29T08:14:11.012Z,8.30
2017-11-29T08:16:39.682Z,7.90
2017-11-29T08:19:09.290Z,8.03
2017-11-29T08:21:38.642Z,9.23
2017-11-29T08:24:06.381Z,8.23
2017-11-29T08:26:34.043Z,7.90
2017-11-29T08:29:04.376Z,9.43
2017-11-29T08:31:33.663Z,8.33
2017-11-29T08:34:01.365Z,9.33
2017-11-29T08:36:31.656Z,7.43
2017-11-29T08:38:59.439Z,11.20
2017-11-29T08:41:28.081Z,8.57
2017-11-29T08:43:55.783Z,9.23
2017-11-29T08:46:25.066Z,10.17
2017-11-29T08:48:56.301Z,9.40
2017-11-29T08:51:23.984Z,10.40
2017-11-29T08:53:51.695Z,11.03
2017-11-29T08:56:21.044Z,10.80
2017-11-29T08:58:48.762Z,10.33
2017-11-29T09:01:16.392Z,11.93
2017-11-29T09:03:44.867Z,10.13
2017-11-29T09:06:14.237Z,8.57
2017-11-29T09:08:43.752Z,9.40
2017-11-29T09:11:13.051Z,8.47
2017-11-29T09:13:40.849Z,9.90
2017-11-29T09:16:09.237Z,8.40
2017-11-29T09:18:38.645Z,9.03
2017-11-29T09:21:07.953Z,8.30
2017-11-29T09:23:37.553Z,10.40
2017-11-29T09:26:05.367Z,9.80
2017-11-29T09:28:34.824Z,8.60
2017-11-29T09:31:02.530Z,6.83
2017-11-29T09:33:31.893Z,8.50
2017-11-29T09:36:01.287Z,8.60
2017-11-29T09:38:30.557Z,8.27
2017-11-29T09:40:59.102Z,7.90
2017-11-29T09:43:26.844Z,10.10
2017-11-29T09:45:56.324Z,19.67
2017-11-29T09:48:26.690Z,15.47
2017-11-29T09:50:55.158Z,8.83
2017-11-29T09:53:23.559Z,8.10
2017-11-29T09:55:51.255Z,7.80
2017-11-29T09:58:19.700Z,7.17
2017-11-29T10:00:48.109Z,7.60
2017-11-29T10:03:15.963Z,5.60
2017-11-29T10:05:45.196Z,6.00
2017-11-29T10:08:14.514Z,6.30
2017-11-29T10:10:42.277Z,7.30
2017-11-29T10:13:10.824Z,6.80
2017-11-29T10:15:41.162Z,6.40
2017-11-29T10:18:08.873Z,6.83
2017-11-29T10:20:40.913Z,6.23
2017-11-29T10:23:09.588Z,16.80
2017-11-29T10:25:38.261Z,20.50
2017-11-29T10:28:05.979Z,21.00
2017-11-29T10:30:36.324Z,11.80
2017-11-29T10:33:04.034Z,17.07
2017-11-29T10:35:34.539Z,6.77
2017-11-29T10:38:02.364Z,7.73
2017-11-29T10:40:29.990Z,7.13
2017-11-29T10:42:57.645Z,7.20
2017-11-29T10:45:26.981Z,8.30
2017-11-29T10:47:57.205Z,15.27
2017-11-29T10:50:24.964Z,6.60
2017-11-29T10:52:52.692Z,6.53
2017-11-29T10:55:21.111Z,6.37
2017-11-29T10:57:50.512Z,6.07
2017-11-29T11:00:24.975Z,5.37
2017-11-29T11:02:52.635Z,6.70
2017-11-29T11:05:22.140Z,6.00
2017-11-29T11:07:49.936Z,7.03
2017-11-29T11:10:20.248Z,6.23
2017-11-29T11:12:47.953Z,6.73
2017-11-29T11:15:17.440Z,5.80
2017-11-29T11:17:45.368Z,6.10
2017-11-29T11:20:13.843Z,5.83
2017-11-29T11:22:41.528Z,5.90
2017-11-29T11:25:09.987Z,5.10
2017-11-29T11:27:39.632Z,7.20
2017-11-29T11:30:07.304Z,7.30
2017-11-29T11:32:35.131Z,7.77
2017-11-29T11:35:04.739Z,7.53
2017-11-29T11:37:33.454Z,7.47
2017-11-29T11:40:02.967Z,7.17
2017-11-29T11:42:31.657Z,7.53
2017-11-29T11:45:01.085Z,6.43
2017-11-29T11:47:28.730Z,6.93
2017-11-29T11:49:57.196Z,7.90
2017-11-29T11:52:24.924Z,7.93
2017-11-29T11:54:55.202Z,7.73
2017-11-29T11:57:25.493Z,8.20
2017-11-29T11:59:54.046Z,10.13
2017-11-29T12:02:24.293Z,9.07
2017-11-29T12:04:53.776Z,8.03
2017-11-29T12:07:23.096Z,7.80
2017-11-29T12:09:50.842Z,7.53
2017-11-29T12:12:20.255Z,9.37
2017-11-29T12:14:48.783Z,8.60
2017-11-29T12:17:19.103Z,11.00
2017-11-29T12:19:46.861Z,8.57
2017-11-29T12:22:16.134Z,9.13
2017-11-29T12:24:45.528Z,9.30
2017-11-29T12:27:15.092Z,10.37
2017-11-29T12:29:43.597Z,8.27
2017-11-29T12:32:11.291Z,9.67
2017-11-29T12:34:40.743Z,8.40
2017-11-29T12:37:10.156Z,11.60
2017-11-29T12:39:37.865Z,7.93
2017-11-29T12:42:06.308Z,9.20
2017-11-29T12:44:34.273Z,8.67
2017-11-29T12:47:02.782Z,7.10
2017-11-29T12:49:42.202Z,8.40
2017-11-29T12:52:11.659Z,8.80
2017-11-29T12:54:41.163Z,8.60
2017-11-29T12:57:09.915Z,7.73
2017-11-29T12:59:39.339Z,7.03
2017-11-29T13:02:07.998Z,8.00
2017-11-29T13:04:35.705Z,11.70
2017-11-29T13:07:05.004Z,7.40
2017-11-29T13:09:32.730Z,6.83
2017-11-29T13:12:01.203Z,7.03
2017-11-29T13:14:30.653Z,7.47
2017-11-29T13:16:59.227Z,8.10
2017-11-29T13:19:28.608Z,7.63
2017-11-29T13:21:57.100Z,8.60
2017-11-29T13:24:24.764Z,6.40
2017-11-29T13:26:52.432Z,12.30
2017-11-29T13:29:20.114Z,14.00
2017-11-29T13:31:50.543Z,7.67
2017-11-29T13:34:20.087Z,7.57
2017-11-29T13:36:47.911Z,7.03
2017-11-29T13:39:17.308Z,6.83
2017-11-29T13:41:45.798Z,6.30
2017-11-29T13:44:13.518Z,6.60
2017-11-29T13:46:41.182Z,7.03
2017-11-29T13:49:11.468Z,6.63
2017-11-29T13:51:41.446Z,6.73
2017-11-29T13:54:09.219Z,5.50
2017-11-29T13:56:37.673Z,6.47
2017-11-29T13:59:05.463Z,6.00
2017-11-29T14:01:33.189Z,6.83
2017-11-29T14:04:00.846Z,11.23
2017-11-29T14:06:29.239Z,12.47
2017-11-29T14:08:59.541Z,6.73
2017-11-29T14:11:27.218Z,7.07
2017-11-29T14:13:55.052Z,7.43
2017-11-29T14:16:24.565Z,8.13
2017-11-29T14:18:52.272Z,7.30
2017-11-29T14:21:21.581Z,6.03
2017-11-29T14:23:51.127Z,11.87
2017-11-29T14:26:19.895Z,7.70
2017-11-29T14:28:51.941Z,6.50
2017-11-29T14:31:19.603Z,6.67
2017-11-29T14:33:48.977Z,6.83
2017-11-29T14:36:17.525Z,6.73
2017-11-29T14:38:46.059Z,9.00
2017-11-29T14:41:13.930Z,11.70
2017-11-29T14:43:41.634Z,6.30
2017-11-29T14:46:11.165Z,6.83
2017-11-29T14:48:38.976Z,11.63
2017-11-29T14:51:08.577Z,11.70
2017-11-29T14:53:38.190Z,9.50
2017-11-29T14:56:11.048Z,18.03
2017-11-29T14:58:41.684Z,18.37
2017-11-29T15:01:15.256Z,17.50
2017-11-29T15:03:47.051Z,20.83
2017-11-29T15:06:18.119Z,14.10
2017-11-29T15:08:46.190Z,15.40
2017-11-29T15:11:15.588Z,11.53
2017-11-29T15:13:43.332Z,10.30
2017-11-29T15:16:12.047Z,8.90
2017-11-29T15:18:41.677Z,9.63
2017-11-29T15:21:10.170Z,9.00
2017-11-29T15:23:37.865Z,11.03
2017-11-29T15:26:07.277Z,13.47
2017-11-29T15:28:35.141Z,10.83
2017-11-29T15:31:03.587Z,9.50
2017-11-29T15:33:33.018Z,10.73
2017-11-29T15:36:01.775Z,9.50
2017-11-29T15:38:29.477Z,8.20
2017-11-29T15:40:58.908Z,7.33
2017-11-29T15:43:29.889Z,7.97
2017-11-29T15:45:57.863Z,11.43
2017-11-29T15:48:26.448Z,8.77
2017-11-29T15:50:54.162Z,8.63
2017-11-29T15:53:24.793Z,10.43
2017-11-29T15:55:55.195Z,11.53
2017-11-29T15:58:24.803Z,9.80
2017-11-29T16:00:54.412Z,10.80
2017-11-29T16:03:26.324Z,9.57
2017-11-29T16:05:55.782Z,13.07
2017-11-29T16:08:24.252Z,12.93
2017-11-29T16:10:53.715Z,11.73
2017-11-29T16:13:23.610Z,11.40
2017-11-29T16:15:51.337Z,12.10
2017-11-29T16:18:20.228Z,14.17
2017-11-29T16:20:47.913Z,10.30
2017-11-29T16:23:17.347Z,12.17
2017-11-29T16:25:46.753Z,11.70
2017-11-29T16:28:14.490Z,11.93
2017-11-29T16:30:42.206Z,10.27
2017-11-29T16:33:09.890Z,15.70
2017-11-29T16:35:37.705Z,10.40
2017-11-29T16:38:08.145Z,15.93
2017-11-29T16:40:37.673Z,12.73
2017-11-29T16:43:05.456Z,13.67
2017-11-29T16:45:35.971Z,16.00
2017-11-29T16:48:03.741Z,16.50
2017-11-29T16:50:33.189Z,13.70
2017-11-29T16:53:01.079Z,15.63
2017-11-29T16:55:30.026Z,18.80
2017-11-29T16:57:59.171Z,16.93
2017-11-29T17:00:27.778Z,17.07
2017-11-29T17:02:56.877Z,13.20
2017-11-29T17:05:24.566Z,15.77
2017-11-29T17:07:53.951Z,14.00
2017-11-29T17:10:21.702Z,14.47
2017-11-29T17:12:51.129Z,18.90
2017-11-29T17:15:19.624Z,14.77
2017-11-29T17:17:47.359Z,14.10
2017-11-29T17:20:15.073Z,13.87
2017-11-29T17:22:44.457Z,12.77
2017-11-29T17:25:14.837Z,13.30
2017-11-29T17:27:42.757Z,14.43
2017-11-29T17:30:13.091Z,19.53
2017-11-29T17:32:40.800Z,16.50
2017-11-29T17:35:10.540Z,14.10
2017-11-29T17:37:39.895Z,21.23
2017-11-29T17:40:07.685Z,20.20
2017-11-29T17:42:36.402Z,17.60
2017-11-29T17:45:04.290Z,19.10
2017-11-29T17:47:34.607Z,15.67
2017-11-29T17:50:03.109Z,23.80
2017-11-29T17:52:31.581Z,17.97
2017-11-29T17:55:00.965Z,18.90
2017-11-29T17:57:30.358Z,17.67
2017-11-29T17:59:58.866Z,19.47
2017-11-29T18:02:28.455Z,16.30
2017-11-29T18:04:56.256Z,19.98
2017-11-29T18:07:25.589Z,18.37
2017-11-29T18:09:55.251Z,16.95
2017-11-29T18:12:24.876Z,16.90
2017-11-29T18:14:53.354Z,15.65
2017-11-29T18:17:21.146Z,15.77
2017-11-29T18:19:53.353Z,14.80
2017-11-29T18:22:21.104Z,17.20
2017-11-29T18:24:49.636Z,20.03
2017-11-29T18:27:19.306Z,17.83
2017-11-29T18:29:47.801Z,17.13
2017-11-29T18:32:15.527Z,15.38
2017-11-29T18:34:44.104Z,15.30
2017-11-29T18:37:13.794Z,11.40
2017-11-29T18:39:41.664Z,12.77
2017-11-29T18:42:09.408Z,10.60
2017-11-29T18:44:37.236Z,13.32
2017-11-29T18:47:06.901Z,16.30
2017-11-29T18:49:36.807Z,17.55
2017-11-29T18:52:08.042Z,18.10
2017-11-29T18:54:35.955Z,16.33
2017-11-29T18:57:04.412Z,17.67
2017-11-29T18:59:32.129Z,17.20
2017-11-29T19:02:00.024Z,15.53
2017-11-29T19:04:28.683Z,16.87
2017-11-29T19:06:56.557Z,13.90
2017-11-29T19:09:24.260Z,15.83
2017-11-29T19:11:52.096Z,14.67
2017-11-29T19:14:20.834Z,14.50
2017-11-29T19:16:50.694Z,16.10
2017-11-29T19:19:18.671Z,18.37
2017-11-29T19:21:49.138Z,19.30
2017-11-29T19:24:17.213Z,13.90
2017-11-29T19:26:44.938Z,14.27
2017-11-29T19:29:12.795Z,16.07
2017-11-29T19:31:42.425Z,15.50
2017-11-29T19:34:10.507Z,14.70
2017-11-29T19:36:40.085Z,14.80
2017-11-29T19:39:07.959Z,18.90
2017-11-29T19:41:38.329Z,15.57
2017-11-29T19:44:06.210Z,15.27
2017-11-29T19:46:36.538Z,15.27
2017-11-29T19:49:04.449Z,15.83
2017-11-29T19:51:34.831Z,18.30
2017-11-29T19:54:02.795Z,17.53
2017-11-29T19:56:30.670Z,18.80
2017-11-29T19:58:59.465Z,18.53
2017-11-29T20:01:27.535Z,21.30
2017-11-29T20:03:55.290Z,23.10
2017-11-29T20:06:24.669Z,18.63
2017-11-29T20:08:55.057Z,18.63
2017-11-29T20:11:24.599Z,15.20
2017-11-29T20:13:52.421Z,14.67
2017-11-29T20:16:22.926Z,17.73
2017-11-29T20:18:50.812Z,16.17
2017-11-29T20:21:18.906Z,16.17
2017-11-29T20:23:48.395Z,14.40
2017-11-29T20:26:19.219Z,16.00
2017-11-29T20:28:47.101Z,15.50
2017-11-29T20:31:15.286Z,15.30
2017-11-29T20:33:43.142Z,15.57
2017-11-29T20:36:10.924Z,15.17
2017-11-29T20:38:43.580Z,16.60
2017-11-29T20:41:13.213Z,14.77
2017-11-29T20:43:41.504Z,16.37
2017-11-29T20:46:10.199Z,15.83
2017-11-29T20:48:38.840Z,16.37
2017-11-29T21:04:12.316Z,20.02
2017-11-29T21:06:40.025Z,18.23
2017-11-29T21:09:07.891Z,18.30
2017-11-29T21:11:37.412Z,20.02
2017-11-29T21:14:07.041Z,19.95
2017-11-29T21:16:34.907Z,19.00
2017-11-29T21:19:03.438Z,16.73
2017-11-29T21:21:31.284Z,18.40
2017-11-29T21:24:01.879Z,16.53
2017-11-29T21:26:31.218Z,21.15
2017-11-29T21:29:00.651Z,19.77
2017-11-29T21:31:30.438Z,18.47
2017-11-29T21:33:58.374Z,17.93
2017-11-29T21:36:28.026Z,19.20
2017-11-29T21:38:56.854Z,18.13
2017-11-29T21:41:24.541Z,17.00
2017-11-29T21:43:52.305Z,16.40
2017-11-29T21:46:19.981Z,18.60
2017-11-29T21:48:48.528Z,17.80
2017-11-29T21:51:17.007Z,19.40
2017-11-29T21:53:46.527Z,21.50
2017-11-29T21:56:14.374Z,18.50
2017-11-29T21:58:43.730Z,20.57
2017-11-29T22:01:11.770Z,18.90
2017-11-29T22:03:39.456Z,20.13
2017-11-29T22:06:07.155Z,19.03
2017-11-29T22:08:34.951Z,20.43
2017-11-29T22:11:03.386Z,18.17
2017-11-29T22:13:32.672Z,20.03
2017-11-29T22:16:00.432Z,19.27
2017-11-29T22:18:29.042Z,19.30
2017-11-29T22:20:56.738Z,21.93
2017-11-29T22:23:24.524Z,19.40
2017-11-29T22:25:52.409Z,21.27
2017-11-29T22:28:20.147Z,20.20
2017-11-29T22:30:50.454Z,19.57
2017-11-29T22:33:20.007Z,21.80
2017-11-29T22:35:47.863Z,19.43
2017-11-29T22:38:17.317Z,21.33
2017-11-29T22:40:45.093Z,20.63
2017-11-29T22:43:15.015Z,20.23
2017-11-29T22:45:43.479Z,22.53
2017-11-29T22:48:11.240Z,21.30
2017-11-29T22:50:38.921Z,24.37
2017-11-29T22:53:06.603Z,23.57
2017-11-29T22:55:34.353Z,19.70
2017-11-29T22:58:02.833Z,26.00
2017-11-29T23:00:32.517Z,25.80
2017-11-29T23:03:00.770Z,28.00
2017-11-29T23:05:29.283Z,27.87
2017-11-29T23:07:57.035Z,26.27
2017-11-29T23:10:26.491Z,25.80
2017-11-29T23:12:55.985Z,30.37
2017-11-29T23:15:23.629Z,25.67
2017-11-29T23:17:51.383Z,26.30
2017-11-29T23:20:19.055Z,27.00
2017-11-29T23:22:48.470Z,25.17
2017-11-29T23:25:16.305Z,25.87
2017-11-29T23:27:43.973Z,24.10
2017-11-29T23:30:12.597Z,22.80
2017-11-29T23:32:40.427Z,22.83
2017-11-29T23:48:09.232Z,22.60
2017-11-29T23:50:37.033Z,24.30
2017-11-29T23:53:07.329Z,20.37
2017-11-29T23:55:35.066Z,20.03
2017-11-29T23:58:02.696Z,18.67
